sensor_id;sensor_type;location;lat;lon;timestamp;temperature;humidity
1413;DHT22;701;52.526;13.408;2023-11-21T00:00:19;9.20;43.90
1413;DHT22;701;52.526;13.408;2023-11-21T00:02:46;9.20;44.10
1413;DHT22;701;52.526;13.408;2023-11-21T00:05:13;9.10;44.60
1413;DHT22;701;52.526;13.408;2023-11-21T00:07:42;9.00;44.00
1413;DHT22;701;52.526;13.408;2023-11-21T00:10:09;9.00;44.50
1413;DHT22;701;52.526;13.408;2023-11-21T00:12:36;8.90;44.40
1413;DHT22;701;52.526;13.408;2023-11-21T00:15:02;8.90;44.10
1413;DHT22;701;52.526;13.408;2023-11-21T00:17:28;8.80;44.00
1413;DHT22;701;52.526;13.408;2023-11-21T00:19:54;8.80;44.30
1413;DHT22;701;52.526;13.408;2023-11-21T00:22:20;8.80;44.30
1413;DHT22;701;52.526;13.408;2023-11-21T00:24:46;8.80;44.50
1413;DHT22;701;52.526;13.408;2023-11-21T00:27:13;8.70;45.00
1413;DHT22;701;52.526;13.408;2023-11-21T00:29:40;8.70;45.00
1413;DHT22;701;52.526;13.408;2023-11-21T00:32:07;8.70;45.50
1413;DHT22;701;52.526;13.408;2023-11-21T00:34:33;8.70;45.40
1413;DHT22;701;52.526;13.408;2023-11-21T00:37:00;8.70;45.30
1413;DHT22;701;52.526;13.408;2023-11-21T00:39:26;8.70;45.00
1413;DHT22;701;52.526;13.408;2023-11-21T00:41:52;8.60;44.60
1413;DHT22;701;52.526;13.408;2023-11-21T00:44:18;8.60;44.40
1413;DHT22;701;52.526;13.408;2023-11-21T00:46:44;8.50;44.10
1413;DHT22;701;52.526;13.408;2023-11-21T00:49:10;8.50;44.00
1413;DHT22;701;52.526;13.408;2023-11-21T00:51:35;8.40;43.50
1413;DHT22;701;52.526;13.408;2023-11-21T00:54:01;8.40;43.80
1413;DHT22;701;52.526;13.408;2023-11-21T00:56:28;8.40;43.50
1413;DHT22;701;52.526;13.408;2023-11-21T00:58:54;8.30;42.60
1413;DHT22;701;52.526;13.408;2023-11-21T01:01:20;8.30;43.60
1413;DHT22;701;52.526;13.408;2023-11-21T01:03:49;8.30;43.90
1413;DHT22;701;52.526;13.408;2023-11-21T01:06:15;8.30;44.00
1413;DHT22;701;52.526;13.408;2023-11-21T01:08:41;8.30;44.80
1413;DHT22;701;52.526;13.408;2023-11-21T01:11:08;8.30;43.70
1413;DHT22;701;52.526;13.408;2023-11-21T01:13:36;8.30;43.50
1413;DHT22;701;52.526;13.408;2023-11-21T01:16:01;8.20;42.70
1413;DHT22;701;52.526;13.408;2023-11-21T01:18:27;8.20;43.00
1413;DHT22;701;52.526;13.408;2023-11-21T01:20:54;8.20;42.60
1413;DHT22;701;52.526;13.408;2023-11-21T01:23:20;8.20;42.20
1413;DHT22;701;52.526;13.408;2023-11-21T01:25:46;8.10;41.90
1413;DHT22;701;52.526;13.408;2023-11-21T01:28:12;8.10;42.80
1413;DHT22;701;52.526;13.408;2023-11-21T01:30:38;8.10;42.80
1413;DHT22;701;52.526;13.408;2023-11-21T01:33:04;8.10;43.40
1413;DHT22;701;52.526;13.408;2023-11-21T01:35:30;8.10;42.30
1413;DHT22;701;52.526;13.408;2023-11-21T01:37:56;8.10;41.60
1413;DHT22;701;52.526;13.408;2023-11-21T01:40:21;8.10;41.60
1413;DHT22;701;52.526;13.408;2023-11-21T01:42:47;8.00;41.40
1413;DHT22;701;52.526;13.408;2023-11-21T01:45:14;8.00;40.60
1413;DHT22;701;52.526;13.408;2023-11-21T01:47:41;8.00;41.00
1413;DHT22;701;52.526;13.408;2023-11-21T01:50:08;8.00;40.90
1413;DHT22;701;52.526;13.408;2023-11-21T01:52:38;7.90;40.60
1413;DHT22;701;52.526;13.408;2023-11-21T01:55:06;7.90;40.30
1413;DHT22;701;52.526;13.408;2023-11-21T01:57:35;7.90;39.40
1413;DHT22;701;52.526;13.408;2023-11-21T02:00:03;7.90;40.00
1413;DHT22;701;52.526;13.408;2023-11-21T02:02:47;7.90;39.30
1413;DHT22;701;52.526;13.408;2023-11-21T02:05:15;7.90;39.30
1413;DHT22;701;52.526;13.408;2023-11-21T02:07:42;7.80;39.20
1413;DHT22;701;52.526;13.408;2023-11-21T02:10:08;7.80;39.20
1413;DHT22;701;52.526;13.408;2023-11-21T02:12:35;7.70;39.10
1413;DHT22;701;52.526;13.408;2023-11-21T02:15:05;7.70;39.20
1413;DHT22;701;52.526;13.408;2023-11-21T02:17:38;7.70;39.10
1413;DHT22;701;52.526;13.408;2023-11-21T02:20:04;7.70;39.10
1413;DHT22;701;52.526;13.408;2023-11-21T02:22:35;7.70;39.50
1413;DHT22;701;52.526;13.408;2023-11-21T02:25:03;7.70;39.10
1413;DHT22;701;52.526;13.408;2023-11-21T02:27:29;7.70;39.10
1413;DHT22;701;52.526;13.408;2023-11-21T02:29:55;7.70;39.10
1413;DHT22;701;52.526;13.408;2023-11-21T02:32:21;7.70;39.20
1413;DHT22;701;52.526;13.408;2023-11-21T02:34:48;7.70;39.10
1413;DHT22;701;52.526;13.408;2023-11-21T02:37:15;7.60;39.00
1413;DHT22;701;52.526;13.408;2023-11-21T02:39:41;7.60;39.00
1413;DHT22;701;52.526;13.408;2023-11-21T02:42:07;7.60;39.00
1413;DHT22;701;52.526;13.408;2023-11-21T02:44:33;7.60;39.00
1413;DHT22;701;52.526;13.408;2023-11-21T02:47:01;7.50;39.70
1413;DHT22;701;52.526;13.408;2023-11-21T02:49:27;7.50;39.50
1413;DHT22;701;52.526;13.408;2023-11-21T02:51:56;7.60;40.00
1413;DHT22;701;52.526;13.408;2023-11-21T02:54:22;7.60;40.10
1413;DHT22;701;52.526;13.408;2023-11-21T02:56:48;7.60;39.00
1413;DHT22;701;52.526;13.408;2023-11-21T02:59:15;7.60;39.00
1413;DHT22;701;52.526;13.408;2023-11-21T03:01:41;7.60;38.50
1413;DHT22;701;52.526;13.408;2023-11-21T03:04:08;7.50;38.00
1413;DHT22;701;52.526;13.408;2023-11-21T03:06:33;7.50;38.00
1413;DHT22;701;52.526;13.408;2023-11-21T03:09:00;7.50;37.80
1413;DHT22;701;52.526;13.408;2023-11-21T03:11:26;7.50;38.20
1413;DHT22;701;52.526;13.408;2023-11-21T03:13:51;7.40;37.90
1413;DHT22;701;52.526;13.408;2023-11-21T03:16:18;7.40;38.10
1413;DHT22;701;52.526;13.408;2023-11-21T03:18:45;7.40;38.90
1413;DHT22;701;52.526;13.408;2023-11-21T03:21:12;7.50;38.90
1413;DHT22;701;52.526;13.408;2023-11-21T03:23:38;7.50;39.00
1413;DHT22;701;52.526;13.408;2023-11-21T03:26:04;7.50;39.00
1413;DHT22;701;52.526;13.408;2023-11-21T03:28:30;7.50;38.20
1413;DHT22;701;52.526;13.408;2023-11-21T03:30:56;7.50;37.30
1413;DHT22;701;52.526;13.408;2023-11-21T03:33:23;7.50;37.50
1413;DHT22;701;52.526;13.408;2023-11-21T03:35:49;7.50;36.90
1413;DHT22;701;52.526;13.408;2023-11-21T03:38:15;7.50;36.40
1413;DHT22;701;52.526;13.408;2023-11-21T03:40:41;7.40;35.80
1413;DHT22;701;52.526;13.408;2023-11-21T03:43:07;7.40;35.30
1413;DHT22;701;52.526;13.408;2023-11-21T03:45:33;7.40;35.10
1413;DHT22;701;52.526;13.408;2023-11-21T03:47:59;7.40;35.10
1413;DHT22;701;52.526;13.408;2023-11-21T03:50:30;7.40;34.50
1413;DHT22;701;52.526;13.408;2023-11-21T03:52:57;7.40;34.50
1413;DHT22;701;52.526;13.408;2023-11-21T03:55:22;7.40;35.00
1413;DHT22;701;52.526;13.408;2023-11-21T03:57:51;7.30;35.80
1413;DHT22;701;52.526;13.408;2023-11-21T04:00:19;7.40;35.00
1413;DHT22;701;52.526;13.408;2023-11-21T04:02:47;7.30;34.40
1413;DHT22;701;52.526;13.408;2023-11-21T04:05:13;7.30;33.80
1413;DHT22;701;52.526;13.408;2023-11-21T04:07:39;7.30;33.90
1413;DHT22;701;52.526;13.408;2023-11-21T04:10:07;7.30;33.70
1413;DHT22;701;52.526;13.408;2023-11-21T04:12:35;7.30;32.70
1413;DHT22;701;52.526;13.408;2023-11-21T04:15:01;7.30;33.30
1413;DHT22;701;52.526;13.408;2023-11-21T04:17:27;7.30;33.60
1413;DHT22;701;52.526;13.408;2023-11-21T04:19:52;7.30;33.70
1413;DHT22;701;52.526;13.408;2023-11-21T04:22:18;7.30;33.40
1413;DHT22;701;52.526;13.408;2023-11-21T04:24:44;7.30;32.80
1413;DHT22;701;52.526;13.408;2023-11-21T04:27:10;7.30;32.80
1413;DHT22;701;52.526;13.408;2023-11-21T04:29:35;7.30;32.10
1413;DHT22;701;52.526;13.408;2023-11-21T04:32:01;7.30;32.00
1413;DHT22;701;52.526;13.408;2023-11-21T04:34:28;7.30;32.30
1413;DHT22;701;52.526;13.408;2023-11-21T04:36:57;7.30;31.50
1413;DHT22;701;52.526;13.408;2023-11-21T04:39:22;7.30;30.90
1413;DHT22;701;52.526;13.408;2023-11-21T04:41:50;7.30;31.40
1413;DHT22;701;52.526;13.408;2023-11-21T04:44:15;7.30;31.40
1413;DHT22;701;52.526;13.408;2023-11-21T04:46:42;7.30;30.80
1413;DHT22;701;52.526;13.408;2023-11-21T04:49:08;7.30;30.50
1413;DHT22;701;52.526;13.408;2023-11-21T04:51:34;7.30;30.30
1413;DHT22;701;52.526;13.408;2023-11-21T04:54:00;7.30;30.60
1413;DHT22;701;52.526;13.408;2023-11-21T04:56:25;7.30;30.00
1413;DHT22;701;52.526;13.408;2023-11-21T04:58:52;7.30;30.00
1413;DHT22;701;52.526;13.408;2023-11-21T05:01:19;7.20;30.00
1413;DHT22;701;52.526;13.408;2023-11-21T05:03:44;7.20;30.00
1413;DHT22;701;52.526;13.408;2023-11-21T05:06:10;7.20;29.60
1413;DHT22;701;52.526;13.408;2023-11-21T05:08:36;7.20;30.00
1413;DHT22;701;52.526;13.408;2023-11-21T05:11:03;7.20;30.00
1413;DHT22;701;52.526;13.408;2023-11-21T05:13:28;7.20;30.00
1413;DHT22;701;52.526;13.408;2023-11-21T05:15:55;7.20;30.00
1413;DHT22;701;52.526;13.408;2023-11-21T05:18:23;7.20;29.40
1413;DHT22;701;52.526;13.408;2023-11-21T05:20:52;7.20;29.80
1413;DHT22;701;52.526;13.408;2023-11-21T05:23:19;7.20;29.50
1413;DHT22;701;52.526;13.408;2023-11-21T05:25:45;7.10;29.50
1413;DHT22;701;52.526;13.408;2023-11-21T05:28:12;7.10;29.70
1413;DHT22;701;52.526;13.408;2023-11-21T05:30:37;7.10;29.90
1413;DHT22;701;52.526;13.408;2023-11-21T05:33:06;7.10;30.00
1413;DHT22;701;52.526;13.408;2023-11-21T05:35:32;7.20;29.90
1413;DHT22;701;52.526;13.408;2023-11-21T05:37:57;7.20;30.00
1413;DHT22;701;52.526;13.408;2023-11-21T05:40:23;7.20;30.00
1413;DHT22;701;52.526;13.408;2023-11-21T05:42:52;7.20;30.00
1413;DHT22;701;52.526;13.408;2023-11-21T05:45:17;7.10;30.00
1413;DHT22;701;52.526;13.408;2023-11-21T05:47:45;7.10;29.40
1413;DHT22;701;52.526;13.408;2023-11-21T05:50:15;7.00;29.90
1413;DHT22;701;52.526;13.408;2023-11-21T05:52:43;7.00;29.90
1413;DHT22;701;52.526;13.408;2023-11-21T05:55:09;7.00;29.90
1413;DHT22;701;52.526;13.408;2023-11-21T05:57:39;7.00;29.90
1413;DHT22;701;52.526;13.408;2023-11-21T06:00:11;7.00;29.70
1413;DHT22;701;52.526;13.408;2023-11-21T06:02:40;7.00;29.20
1413;DHT22;701;52.526;13.408;2023-11-21T06:05:09;7.10;29.30
1413;DHT22;701;52.526;13.408;2023-11-21T06:07:36;7.10;29.00
1413;DHT22;701;52.526;13.408;2023-11-21T06:10:03;7.10;28.50
1413;DHT22;701;52.526;13.408;2023-11-21T06:12:32;7.00;28.40
1413;DHT22;701;52.526;13.408;2023-11-21T06:15:02;7.10;28.70
1413;DHT22;701;52.526;13.408;2023-11-21T06:17:31;7.10;28.40
1413;DHT22;701;52.526;13.408;2023-11-21T06:19:57;7.00;28.20
1413;DHT22;701;52.526;13.408;2023-11-21T06:22:22;7.00;28.30
1413;DHT22;701;52.526;13.408;2023-11-21T06:24:48;7.00;27.90
1413;DHT22;701;52.526;13.408;2023-11-21T06:27:14;7.00;27.90
1413;DHT22;701;52.526;13.408;2023-11-21T06:29:40;7.00;27.70
1413;DHT22;701;52.526;13.408;2023-11-21T06:32:07;7.00;27.40
1413;DHT22;701;52.526;13.408;2023-11-21T06:34:34;7.00;27.50
1413;DHT22;701;52.526;13.408;2023-11-21T06:36:59;7.00;27.30
1413;DHT22;701;52.526;13.408;2023-11-21T06:39:25;7.00;27.40
1413;DHT22;701;52.526;13.408;2023-11-21T06:41:51;7.00;27.40
1413;DHT22;701;52.526;13.408;2023-11-21T06:44:16;7.00;26.90
1413;DHT22;701;52.526;13.408;2023-11-21T06:46:42;7.00;27.30
1413;DHT22;701;52.526;13.408;2023-11-21T06:49:08;7.00;27.00
1413;DHT22;701;52.526;13.408;2023-11-21T06:51:34;7.00;26.70
1413;DHT22;701;52.526;13.408;2023-11-21T06:54:00;7.00;26.80
1413;DHT22;701;52.526;13.408;2023-11-21T06:56:26;7.00;26.80
1413;DHT22;701;52.526;13.408;2023-11-21T06:58:51;7.00;26.40
1413;DHT22;701;52.526;13.408;2023-11-21T07:01:20;7.00;26.40
1413;DHT22;701;52.526;13.408;2023-11-21T07:03:46;7.00;26.40
1413;DHT22;701;52.526;13.408;2023-11-21T07:06:12;6.90;26.40
1413;DHT22;701;52.526;13.408;2023-11-21T07:08:37;6.90;26.40
1413;DHT22;701;52.526;13.408;2023-11-21T07:11:04;6.90;26.40
1413;DHT22;701;52.526;13.408;2023-11-21T07:13:30;6.90;26.30
1413;DHT22;701;52.526;13.408;2023-11-21T07:15:59;6.90;26.40
1413;DHT22;701;52.526;13.408;2023-11-21T07:18:25;7.00;26.40
1413;DHT22;701;52.526;13.408;2023-11-21T07:20:50;7.00;26.40
1413;DHT22;701;52.526;13.408;2023-11-21T07:23:17;7.00;26.00
1413;DHT22;701;52.526;13.408;2023-11-21T07:25:43;7.00;26.10
1413;DHT22;701;52.526;13.408;2023-11-21T07:28:09;7.00;26.10
1413;DHT22;701;52.526;13.408;2023-11-21T07:30:35;7.00;26.00
1413;DHT22;701;52.526;13.408;2023-11-21T07:33:00;7.00;25.60
1413;DHT22;701;52.526;13.408;2023-11-21T07:35:26;7.00;25.80
1413;DHT22;701;52.526;13.408;2023-11-21T07:37:52;7.00;25.60
1413;DHT22;701;52.526;13.408;2023-11-21T07:40:18;6.90;25.70
1413;DHT22;701;52.526;13.408;2023-11-21T07:42:43;7.00;25.50
1413;DHT22;701;52.526;13.408;2023-11-21T07:45:10;7.00;25.60
1413;DHT22;701;52.526;13.408;2023-11-21T07:47:37;7.00;25.40
1413;DHT22;701;52.526;13.408;2023-11-21T07:50:05;7.00;25.50
1413;DHT22;701;52.526;13.408;2023-11-21T07:52:32;7.00;25.60
1413;DHT22;701;52.526;13.408;2023-11-21T07:54:59;7.00;25.10
1413;DHT22;701;52.526;13.408;2023-11-21T07:57:24;7.00;25.00
1413;DHT22;701;52.526;13.408;2023-11-21T07:59:50;7.00;24.90
1413;DHT22;701;52.526;13.408;2023-11-21T08:02:19;7.00;25.00
1413;DHT22;701;52.526;13.408;2023-11-21T08:04:45;7.00;25.00
1413;DHT22;701;52.526;13.408;2023-11-21T08:07:10;7.00;24.70
1413;DHT22;701;52.526;13.408;2023-11-21T08:09:36;7.00;24.60
1413;DHT22;701;52.526;13.408;2023-11-21T08:12:02;7.00;24.80
1413;DHT22;701;52.526;13.408;2023-11-21T08:14:28;6.90;24.50
1413;DHT22;701;52.526;13.408;2023-11-21T08:16:54;6.90;24.40
1413;DHT22;701;52.526;13.408;2023-11-21T08:19:23;6.90;24.20
1413;DHT22;701;52.526;13.408;2023-11-21T08:21:51;6.90;24.40
1413;DHT22;701;52.526;13.408;2023-11-21T08:24:20;6.90;24.30
1413;DHT22;701;52.526;13.408;2023-11-21T08:26:46;6.90;24.50
1413;DHT22;701;52.526;13.408;2023-11-21T08:29:12;6.90;24.90
1413;DHT22;701;52.526;13.408;2023-11-21T08:31:39;6.80;24.30
1413;DHT22;701;52.526;13.408;2023-11-21T08:34:04;6.80;24.10
1413;DHT22;701;52.526;13.408;2023-11-21T08:36:30;6.80;24.00
1413;DHT22;701;52.526;13.408;2023-11-21T08:38:57;6.80;24.10
1413;DHT22;701;52.526;13.408;2023-11-21T08:41:23;6.80;23.60
1413;DHT22;701;52.526;13.408;2023-11-21T08:43:50;6.80;23.90
1413;DHT22;701;52.526;13.408;2023-11-21T08:46:16;6.80;23.90
1413;DHT22;701;52.526;13.408;2023-11-21T08:48:45;6.80;24.10
1413;DHT22;701;52.526;13.408;2023-11-21T08:51:11;6.90;24.30
1413;DHT22;701;52.526;13.408;2023-11-21T08:53:38;7.00;24.10
1413;DHT22;701;52.526;13.408;2023-11-21T08:56:04;7.00;23.60
1413;DHT22;701;52.526;13.408;2023-11-21T08:58:31;7.00;23.70
1413;DHT22;701;52.526;13.408;2023-11-21T09:00:58;7.00;23.70
1413;DHT22;701;52.526;13.408;2023-11-21T09:03:24;7.10;23.80
1413;DHT22;701;52.526;13.408;2023-11-21T09:05:50;7.00;22.90
1413;DHT22;701;52.526;13.408;2023-11-21T09:08:16;7.00;23.40
1413;DHT22;701;52.526;13.408;2023-11-21T09:10:42;7.00;23.70
1413;DHT22;701;52.526;13.408;2023-11-21T09:13:10;7.10;23.40
1413;DHT22;701;52.526;13.408;2023-11-21T09:15:36;7.10;23.50
1413;DHT22;701;52.526;13.408;2023-11-21T09:18:02;7.10;23.50
1413;DHT22;701;52.526;13.408;2023-11-21T09:20:28;7.10;23.00
1413;DHT22;701;52.526;13.408;2023-11-21T09:22:54;7.00;22.80
1413;DHT22;701;52.526;13.408;2023-11-21T09:25:21;7.00;22.90
1413;DHT22;701;52.526;13.408;2023-11-21T09:27:46;7.00;22.90
1413;DHT22;701;52.526;13.408;2023-11-21T09:30:12;7.00;22.90
1413;DHT22;701;52.526;13.408;2023-11-21T09:32:39;7.00;22.90
1413;DHT22;701;52.526;13.408;2023-11-21T09:35:06;6.90;23.10
1413;DHT22;701;52.526;13.408;2023-11-21T09:37:34;6.90;23.90
1413;DHT22;701;52.526;13.408;2023-11-21T09:39:59;6.80;23.60
1413;DHT22;701;52.526;13.408;2023-11-21T09:42:36;6.80;24.00
1413;DHT22;701;52.526;13.408;2023-11-21T09:45:18;6.80;24.40
1413;DHT22;701;52.526;13.408;2023-11-21T09:47:47;6.90;24.20
1413;DHT22;701;52.526;13.408;2023-11-21T09:50:16;6.90;24.30
1413;DHT22;701;52.526;13.408;2023-11-21T09:55:46;6.90;22.80
1413;DHT22;701;52.526;13.408;2023-11-21T09:58:14;6.80;22.80
1413;DHT22;701;52.526;13.408;2023-11-21T10:00:44;6.80;22.80
1413;DHT22;701;52.526;13.408;2023-11-21T10:03:11;6.80;22.50
1413;DHT22;701;52.526;13.408;2023-11-21T10:05:37;6.70;22.70
1413;DHT22;701;52.526;13.408;2023-11-21T10:08:10;6.70;22.70
1413;DHT22;701;52.526;13.408;2023-11-21T10:10:37;6.60;22.70
1413;DHT22;701;52.526;13.408;2023-11-21T10:13:05;6.60;22.60
1413;DHT22;701;52.526;13.408;2023-11-21T10:15:33;6.50;23.30
1413;DHT22;701;52.526;13.408;2023-11-21T10:18:05;6.50;23.90
1413;DHT22;701;52.526;13.408;2023-11-21T10:20:32;6.40;23.80
1413;DHT22;701;52.526;13.408;2023-11-21T10:23:03;6.40;24.00
1413;DHT22;701;52.526;13.408;2023-11-21T10:25:30;6.40;24.30
1413;DHT22;701;52.526;13.408;2023-11-21T10:28:02;6.50;24.50
1413;DHT22;701;52.526;13.408;2023-11-21T10:30:39;6.50;24.80
1413;DHT22;701;52.526;13.408;2023-11-21T10:33:07;6.60;24.60
1413;DHT22;701;52.526;13.408;2023-11-21T10:35:45;6.60;24.70
1413;DHT22;701;52.526;13.408;2023-11-21T10:38:15;6.60;24.70
1413;DHT22;701;52.526;13.408;2023-11-21T10:40:41;6.60;25.10
1413;DHT22;701;52.526;13.408;2023-11-21T10:43:09;6.60;25.20
1413;DHT22;701;52.526;13.408;2023-11-21T10:45:38;6.60;25.60
1413;DHT22;701;52.526;13.408;2023-11-21T10:48:12;6.60;25.10
1413;DHT22;701;52.526;13.408;2023-11-21T10:50:41;6.60;25.20
1413;DHT22;701;52.526;13.408;2023-11-21T10:53:07;6.50;25.20
1413;DHT22;701;52.526;13.408;2023-11-21T10:55:34;6.50;25.30
1413;DHT22;701;52.526;13.408;2023-11-21T10:58:01;6.50;25.50
1413;DHT22;701;52.526;13.408;2023-11-21T11:00:29;6.40;25.40
1413;DHT22;701;52.526;13.408;2023-11-21T11:02:55;6.40;25.60
1413;DHT22;701;52.526;13.408;2023-11-21T11:05:23;6.30;25.90
1413;DHT22;701;52.526;13.408;2023-11-21T11:07:56;6.20;26.00
1413;DHT22;701;52.526;13.408;2023-11-21T11:10:26;6.20;26.00
1413;DHT22;701;52.526;13.408;2023-11-21T11:12:53;6.20;26.00
1413;DHT22;701;52.526;13.408;2023-11-21T11:15:20;6.20;26.00
1413;DHT22;701;52.526;13.408;2023-11-21T11:17:46;6.20;26.30
1413;DHT22;701;52.526;13.408;2023-11-21T11:20:13;6.30;26.20
1413;DHT22;701;52.526;13.408;2023-11-21T11:23:11;6.40;26.00
1413;DHT22;701;52.526;13.408;2023-11-21T11:34:33;6.40;25.30
1413;DHT22;701;52.526;13.408;2023-11-21T11:37:06;6.40;25.30
1413;DHT22;701;52.526;13.408;2023-11-21T11:39:39;6.50;25.40
1413;DHT22;701;52.526;13.408;2023-11-21T11:42:14;6.50;25.40
1413;DHT22;701;52.526;13.408;2023-11-21T11:47:19;6.60;25.60
1413;DHT22;701;52.526;13.408;2023-11-21T11:50:00;6.60;25.60
1413;DHT22;701;52.526;13.408;2023-11-21T11:55:03;6.60;25.10
1413;DHT22;701;52.526;13.408;2023-11-21T11:57:34;6.60;24.90
1413;DHT22;701;52.526;13.408;2023-11-21T12:00:19;6.60;24.70
1413;DHT22;701;52.526;13.408;2023-11-21T12:02:52;6.60;24.60
1413;DHT22;701;52.526;13.408;2023-11-21T12:05:19;6.60;24.50
1413;DHT22;701;52.526;13.408;2023-11-21T12:07:54;6.60;24.50
1413;DHT22;701;52.526;13.408;2023-11-21T12:10:27;6.60;24.20
1413;DHT22;701;52.526;13.408;2023-11-21T12:12:55;6.60;24.30
1413;DHT22;701;52.526;13.408;2023-11-21T12:15:22;6.60;24.50
1413;DHT22;701;52.526;13.408;2023-11-21T12:17:50;6.60;24.60
1413;DHT22;701;52.526;13.408;2023-11-21T12:20:18;6.50;24.30
1413;DHT22;701;52.526;13.408;2023-11-21T12:22:46;6.50;24.30
1413;DHT22;701;52.526;13.408;2023-11-21T12:25:33;6.40;24.40
1413;DHT22;701;52.526;13.408;2023-11-21T12:28:00;6.50;24.90
1413;DHT22;701;52.526;13.408;2023-11-21T12:30:28;6.50;25.10
1413;DHT22;701;52.526;13.408;2023-11-21T12:32:56;6.50;25.30
1413;DHT22;701;52.526;13.408;2023-11-21T12:35:28;6.50;25.40
1413;DHT22;701;52.526;13.408;2023-11-21T12:37:56;6.50;25.60
1413;DHT22;701;52.526;13.408;2023-11-21T12:40:25;6.50;25.40
1413;DHT22;701;52.526;13.408;2023-11-21T12:42:53;6.50;25.80
1413;DHT22;701;52.526;13.408;2023-11-21T12:45:28;6.50;25.60
1413;DHT22;701;52.526;13.408;2023-11-21T12:48:02;6.50;26.00
1413;DHT22;701;52.526;13.408;2023-11-21T12:50:33;6.50;25.30
1413;DHT22;701;52.526;13.408;2023-11-21T12:53:09;6.50;25.30
1413;DHT22;701;52.526;13.408;2023-11-21T12:55:36;6.50;25.30
1413;DHT22;701;52.526;13.408;2023-11-21T12:58:04;6.50;25.20
1413;DHT22;701;52.526;13.408;2023-11-21T13:00:47;6.40;25.60
1413;DHT22;701;52.526;13.408;2023-11-21T13:03:14;6.40;26.00
1413;DHT22;701;52.526;13.408;2023-11-21T13:05:44;6.50;26.20
1413;DHT22;701;52.526;13.408;2023-11-21T13:08:12;6.50;26.10
1413;DHT22;701;52.526;13.408;2023-11-21T13:10:40;6.60;25.80
1413;DHT22;701;52.526;13.408;2023-11-21T13:13:09;6.60;25.30
1413;DHT22;701;52.526;13.408;2023-11-21T13:15:39;6.50;25.20
1413;DHT22;701;52.526;13.408;2023-11-21T13:18:06;6.50;25.20
1413;DHT22;701;52.526;13.408;2023-11-21T13:20:32;6.50;24.90
1413;DHT22;701;52.526;13.408;2023-11-21T13:22:59;6.40;24.90
1413;DHT22;701;52.526;13.408;2023-11-21T13:25:27;6.40;25.00
1413;DHT22;701;52.526;13.408;2023-11-21T13:27:56;6.30;24.60
1413;DHT22;701;52.526;13.408;2023-11-21T13:30:23;6.20;24.50
1413;DHT22;701;52.526;13.408;2023-11-21T13:32:55;6.20;24.10
1413;DHT22;701;52.526;13.408;2023-11-21T13:35:30;6.10;24.10
1413;DHT22;701;52.526;13.408;2023-11-21T13:38:18;6.00;23.90
1413;DHT22;701;52.526;13.408;2023-11-21T13:40:52;5.90;24.20
1413;DHT22;701;52.526;13.408;2023-11-21T13:43:24;5.90;24.40
1413;DHT22;701;52.526;13.408;2023-11-21T13:45:52;5.80;24.40
1413;DHT22;701;52.526;13.408;2023-11-21T13:48:26;5.70;24.40
1413;DHT22;701;52.526;13.408;2023-11-21T13:50:58;5.60;24.80
1413;DHT22;701;52.526;13.408;2023-11-21T13:53:26;5.60;25.30
1413;DHT22;701;52.526;13.408;2023-11-21T13:55:54;5.50;25.50
1413;DHT22;701;52.526;13.408;2023-11-21T13:58:20;5.40;25.40
1413;DHT22;701;52.526;13.408;2023-11-21T14:00:58;5.40;25.40
1413;DHT22;701;52.526;13.408;2023-11-21T14:03:24;5.30;25.90
1413;DHT22;701;52.526;13.408;2023-11-21T14:05:58;5.30;26.30
1413;DHT22;701;52.526;13.408;2023-11-21T14:08:26;5.30;26.80
1413;DHT22;701;52.526;13.408;2023-11-21T14:10:54;5.30;26.80
1413;DHT22;701;52.526;13.408;2023-11-21T14:13:27;5.30;26.70
1413;DHT22;701;52.526;13.408;2023-11-21T14:15:53;5.30;26.50
1413;DHT22;701;52.526;13.408;2023-11-21T14:18:27;5.20;26.20
1413;DHT22;701;52.526;13.408;2023-11-21T14:20:57;5.20;26.20
1413;DHT22;701;52.526;13.408;2023-11-21T14:23:23;5.20;26.20
1413;DHT22;701;52.526;13.408;2023-11-21T14:25:49;5.10;26.40
1413;DHT22;701;52.526;13.408;2023-11-21T14:28:16;5.10;26.30
1413;DHT22;701;52.526;13.408;2023-11-21T14:30:42;5.00;26.40
1413;DHT22;701;52.526;13.408;2023-11-21T14:33:08;5.00;26.30
1413;DHT22;701;52.526;13.408;2023-11-21T14:35:37;4.90;26.40
1413;DHT22;701;52.526;13.408;2023-11-21T14:38:02;4.90;26.00
1413;DHT22;701;52.526;13.408;2023-11-21T14:40:33;4.90;26.30
1413;DHT22;701;52.526;13.408;2023-11-21T14:43:02;4.90;26.10
1413;DHT22;701;52.526;13.408;2023-11-21T14:45:34;4.90;26.10
1413;DHT22;701;52.526;13.408;2023-11-21T14:48:01;4.80;26.20
1413;DHT22;701;52.526;13.408;2023-11-21T14:50:51;4.80;26.80
1413;DHT22;701;52.526;13.408;2023-11-21T14:53:17;4.80;26.70
1413;DHT22;701;52.526;13.408;2023-11-21T14:55:59;4.80;26.80
1413;DHT22;701;52.526;13.408;2023-11-21T14:58:27;4.70;26.90
1413;DHT22;701;52.526;13.408;2023-11-21T15:00:57;4.70;26.60
1413;DHT22;701;52.526;13.408;2023-11-21T15:03:27;4.60;26.60
1413;DHT22;701;52.526;13.408;2023-11-21T15:06:03;4.60;26.20
1413;DHT22;701;52.526;13.408;2023-11-21T15:08:49;4.60;25.50
1413;DHT22;701;52.526;13.408;2023-11-21T15:11:20;4.50;25.70
1413;DHT22;701;52.526;13.408;2023-11-21T15:13:50;4.40;25.70
1413;DHT22;701;52.526;13.408;2023-11-21T15:16:17;4.40;25.90
1413;DHT22;701;52.526;13.408;2023-11-21T15:18:44;4.40;25.50
1413;DHT22;701;52.526;13.408;2023-11-21T15:21:10;4.40;25.40
1413;DHT22;701;52.526;13.408;2023-11-21T15:23:38;4.40;25.20
1413;DHT22;701;52.526;13.408;2023-11-21T15:26:04;4.40;25.40
1413;DHT22;701;52.526;13.408;2023-11-21T15:28:30;4.40;24.90
1413;DHT22;701;52.526;13.408;2023-11-21T15:30:58;4.40;24.80
1413;DHT22;701;52.526;13.408;2023-11-21T15:33:23;4.40;24.90
1413;DHT22;701;52.526;13.408;2023-11-21T15:35:52;4.40;24.80
1413;DHT22;701;52.526;13.408;2023-11-21T15:38:20;4.40;24.80
1413;DHT22;701;52.526;13.408;2023-11-21T15:40:47;4.40;24.80
1413;DHT22;701;52.526;13.408;2023-11-21T15:43:15;4.40;24.50
1413;DHT22;701;52.526;13.408;2023-11-21T15:45:40;4.40;24.30
1413;DHT22;701;52.526;13.408;2023-11-21T15:48:06;4.30;24.20
1413;DHT22;701;52.526;13.408;2023-11-21T15:50:32;4.40;24.00
1413;DHT22;701;52.526;13.408;2023-11-21T15:52:58;4.30;24.00
1413;DHT22;701;52.526;13.408;2023-11-21T15:55:25;4.30;24.20
1413;DHT22;701;52.526;13.408;2023-11-21T15:57:51;4.30;23.90
1413;DHT22;701;52.526;13.408;2023-11-21T16:00:17;4.30;24.30
1413;DHT22;701;52.526;13.408;2023-11-21T16:02:46;4.30;24.20
1413;DHT22;701;52.526;13.408;2023-11-21T16:05:12;4.30;23.50
1413;DHT22;701;52.526;13.408;2023-11-21T16:07:42;4.30;23.60
1413;DHT22;701;52.526;13.408;2023-11-21T16:10:09;4.20;23.00
1413;DHT22;701;52.526;13.408;2023-11-21T16:12:41;4.20;23.60
1413;DHT22;701;52.526;13.408;2023-11-21T16:15:07;4.20;23.60
1413;DHT22;701;52.526;13.408;2023-11-21T16:17:37;4.20;23.60
1413;DHT22;701;52.526;13.408;2023-11-21T16:20:04;4.30;23.40
1413;DHT22;701;52.526;13.408;2023-11-21T16:22:36;4.20;23.40
1413;DHT22;701;52.526;13.408;2023-11-21T16:25:03;4.30;23.40
1413;DHT22;701;52.526;13.408;2023-11-21T16:27:30;4.20;23.00
1413;DHT22;701;52.526;13.408;2023-11-21T16:29:57;4.20;23.00
1413;DHT22;701;52.526;13.408;2023-11-21T16:32:23;4.20;23.20
1413;DHT22;701;52.526;13.408;2023-11-21T16:34:49;4.20;23.30
1413;DHT22;701;52.526;13.408;2023-11-21T16:37:15;4.20;23.20